Главная страница
METAR-TAF:

METAR-TAF

Аэропорты :

Нальчик, Россия

широта: 43-30-46N, долгота: 043-38-12E, высота над уровнем моря: 445 м

Текущие метеонаблюдения

Эта сводка был подготовлена 28 минут назад, в 06:30 UTC
Ветер 4 Узел от северо-северо-восточный
Температура 21°C
Влажность 78%
Давление 1013 hPa
Видимость 10 км и более
небольшая облачность

METAR: URMN 270630Z 02002MPS 9999 FEW/// 21/17 Q1013 R24/010070 NOSIG RMK QFE723

Время: 09:58 (06:58 UTC)

Прогноз

Эта сводка был подготовлена 1 час и 58 минут назад, в 05:00 UTC
Прогноз действительный с 27-го 06 UTC до 27-го 15 UTC
Ветер 6 Узел от северо-восточный с порывами до 16 Узел
Видимость 10 км и более
Отдельные облака на высоте 3000 фута

TAF: URMN 270500Z 2706/2715 04003G08MPS 9999 SCT030

Метеонаблюдения и прогнозы для более 4000 аэропортов (сводки METAR и TAF).

Имеющиеся станции представлены на карте желтыми и красными точками.

Чтобы увидеть название станции, наведите на нее мышь.

Затем щелкните, чтобы увидеть метеонаблюдения и метеопрогнозы.

Управление картой: чтобы увеличить масштаб, щелкните зеленые кнопки с черным крестиком; чтобы уменьшить масштаб, щелкните зеленую кнопку с тире; для просмотра соседних карт щелкайте зеленые стрелки.


METAR-TAF: